createdAt,value
2023-12-28T00:01:12.766Z,61630.53
2023-12-28T00:03:41.960Z,61630.53
2023-12-28T00:06:09.085Z,61630.53
2023-12-28T00:08:36.133Z,61630.53
2023-12-28T00:11:03.877Z,61630.53
2023-12-28T00:13:30.856Z,61630.53
2023-12-28T00:15:57.834Z,61630.53
2023-12-28T00:18:24.926Z,61630.53
2023-12-28T00:20:51.985Z,61630.53
2023-12-28T00:23:21.131Z,61630.53
2023-12-28T00:25:48.212Z,61630.53
2023-12-28T00:28:15.297Z,61630.53
2023-12-28T00:30:42.781Z,61630.53
2023-12-28T00:33:09.945Z,61630.53
2023-12-28T00:35:37.002Z,61630.53
2023-12-28T00:38:04.216Z,61630.53
2023-12-28T00:40:31.389Z,61630.53
2023-12-28T00:42:58.427Z,61630.53
2023-12-28T00:45:25.475Z,61630.53
2023-12-28T00:47:53.335Z,61630.53
2023-12-28T00:50:20.362Z,61630.53
2023-12-28T00:52:47.552Z,61630.53
2023-12-28T00:55:14.540Z,61630.53
2023-12-28T00:57:41.566Z,61630.53
2023-12-28T01:00:09.336Z,61630.53
2023-12-28T01:02:36.293Z,61630.53
2023-12-28T01:07:32.838Z,98424.09
2023-12-28T01:09:59.945Z,98431.66
2023-12-28T01:12:26.923Z,98426.66
2023-12-28T01:14:53.889Z,98414.25
2023-12-28T01:17:20.894Z,98414.06
2023-12-28T01:19:48.189Z,98422.28
2023-12-28T01:22:15.244Z,98418.25
2023-12-28T01:24:43.519Z,98420.31
2023-12-28T01:27:10.560Z,98430.09
2023-12-28T01:29:37.534Z,98424.84
2023-12-28T01:32:05.347Z,98432.13
2023-12-28T01:34:32.827Z,98428.69
2023-12-28T01:36:59.858Z,98431.50
2023-12-28T01:39:27.183Z,98437.25
2023-12-28T01:41:54.244Z,98440.94
2023-12-28T01:44:21.279Z,98440.06
2023-12-28T01:46:48.419Z,98442.72
2023-12-28T01:49:15.542Z,98450.25
2023-12-28T01:51:43.824Z,98454.66
2023-12-28T01:54:11.308Z,98448.56
2023-12-28T01:56:38.937Z,98450.88
2023-12-28T01:59:06.087Z,98462.19
2023-12-28T02:01:33.826Z,98469.19
2023-12-28T02:04:01.044Z,98463.13
2023-12-28T02:06:28.257Z,98464.94
2023-12-28T02:08:55.783Z,98465.97
2023-12-28T02:11:22.798Z,98466.94
2023-12-28T02:13:49.975Z,98472.63
2023-12-28T02:16:34.889Z,98478.63
2023-12-28T02:19:20.184Z,98478.88
2023-12-28T02:21:49.057Z,98483.75
2023-12-28T02:24:16.250Z,98478.47
2023-12-28T02:26:43.275Z,98481.63
2023-12-28T02:29:10.257Z,98489.88
2023-12-28T02:31:48.012Z,98479.41
2023-12-28T02:34:26.457Z,98478.81
2023-12-28T02:36:55.105Z,98482.78
2023-12-28T02:39:23.914Z,98478.75
2023-12-28T02:41:50.981Z,98485.44
2023-12-28T02:44:19.101Z,98480.78
2023-12-28T02:46:46.626Z,98482.88
2023-12-28T02:49:14.074Z,98484.03
2023-12-28T02:51:41.124Z,98476.56
2023-12-28T02:54:08.158Z,98479.53
2023-12-28T02:56:35.210Z,98481.31
2023-12-28T02:59:02.472Z,98474.84
2023-12-28T03:01:29.782Z,98476.47
2023-12-28T03:03:56.931Z,98474.22
2023-12-28T03:06:23.951Z,98478.22
2023-12-28T03:08:51.060Z,98484.31
2023-12-28T03:11:18.293Z,98486.47
2023-12-28T03:13:45.581Z,98482.47
2023-12-28T03:16:14.527Z,98491.50
2023-12-28T03:18:41.653Z,98477.19
2023-12-28T03:21:09.627Z,98474.50
2023-12-28T03:23:36.629Z,98479.00
2023-12-28T03:26:03.608Z,98470.34
2023-12-28T03:28:30.501Z,98473.41
2023-12-28T03:30:58.151Z,98466.75
2023-12-28T03:33:25.189Z,98475.59
2023-12-28T03:35:53.229Z,98471.28
2023-12-28T03:38:20.178Z,98467.84
2023-12-28T03:40:51.098Z,98471.81
2023-12-28T03:43:18.311Z,98475.56
2023-12-28T03:45:45.359Z,98467.13
2023-12-28T03:48:12.461Z,98469.53
2023-12-28T03:50:39.574Z,98465.84
2023-12-28T03:53:06.539Z,98465.31
2023-12-28T03:55:33.744Z,98465.66
2023-12-28T03:58:00.905Z,98466.56
2023-12-28T04:00:28.524Z,98462.78
2023-12-28T04:02:55.547Z,98452.06
2023-12-28T04:05:22.785Z,98453.78
2023-12-28T04:07:49.764Z,98449.63
2023-12-28T04:10:31.341Z,98451.03
2023-12-28T04:12:58.910Z,98451.94
2023-12-28T04:15:29.199Z,98455.81
2023-12-28T04:17:56.551Z,98451.56
2023-12-28T04:20:24.302Z,98462.94
2023-12-28T04:22:51.629Z,98462.16
2023-12-28T04:25:18.920Z,98470.66
2023-12-28T04:27:45.950Z,98464.16
2023-12-28T04:30:13.857Z,98464.34
2023-12-28T04:32:41.053Z,98462.31
2023-12-28T04:35:08.226Z,98457.31
2023-12-28T04:37:36.169Z,98455.94
2023-12-28T04:40:04.842Z,98446.19
2023-12-28T04:42:32.848Z,98433.94
2023-12-28T04:45:00.265Z,98437.00
2023-12-28T04:47:27.256Z,98433.69
2023-12-28T04:49:54.427Z,98433.47
2023-12-28T04:52:22.064Z,98432.53
2023-12-28T04:54:49.158Z,98434.31
2023-12-28T04:57:16.162Z,98432.94
2023-12-28T04:59:43.187Z,98437.25
2023-12-28T05:02:10.121Z,98443.41
2023-12-28T05:04:40.454Z,98429.66
2023-12-28T05:07:07.750Z,98429.19
2023-12-28T05:09:34.965Z,98431.41
2023-12-28T05:12:02.070Z,98437.00
2023-12-28T05:14:29.008Z,98443.25
2023-12-28T05:16:55.951Z,98453.44
2023-12-28T05:19:22.980Z,98459.44
2023-12-28T05:21:50.195Z,98467.66
2023-12-28T05:24:17.287Z,98470.53
2023-12-28T05:26:44.231Z,98475.59
2023-12-28T05:29:11.257Z,98467.38
2023-12-28T05:31:38.358Z,98472.63
2023-12-28T05:34:07.375Z,98473.47
2023-12-28T05:36:34.411Z,61630.53
2023-12-28T05:39:01.542Z,61630.53
2023-12-28T05:41:28.703Z,61630.53
2023-12-28T05:43:55.781Z,61630.53
2023-12-28T05:46:22.748Z,61630.53
2023-12-28T05:48:49.890Z,61630.53
2023-12-28T05:51:17.037Z,61630.53
2023-12-28T05:53:43.991Z,61630.53
2023-12-28T05:56:11.226Z,61630.53
2023-12-28T05:58:39.835Z,61630.53
2023-12-28T06:01:06.918Z,61630.53
2023-12-28T06:03:34.117Z,61630.53
2023-12-28T06:06:01.163Z,61630.53
2023-12-28T06:08:28.479Z,61630.53
2023-12-28T06:10:55.478Z,61630.53
2023-12-28T06:13:22.422Z,61630.53
2023-12-28T06:15:49.510Z,61630.53
2023-12-28T06:18:16.585Z,61630.53
2023-12-28T06:20:43.970Z,61630.53
2023-12-28T06:23:10.950Z,61630.53
2023-12-28T06:25:38.157Z,61630.53
2023-12-28T06:28:05.549Z,61630.53
2023-12-28T06:30:32.640Z,61630.53
2023-12-28T06:32:59.798Z,61630.53
2023-12-28T06:35:26.830Z,61630.53
2023-12-28T06:37:53.794Z,61630.53
2023-12-28T06:40:20.748Z,61630.53
2023-12-28T06:42:47.705Z,61630.53
2023-12-28T06:45:14.796Z,61630.53
2023-12-28T06:47:41.800Z,61630.53
2023-12-28T06:50:09.454Z,61630.53
2023-12-28T06:52:36.518Z,61630.53
2023-12-28T06:55:03.661Z,61630.53
2023-12-28T06:57:30.673Z,61630.53
2023-12-28T06:59:59.446Z,61630.53
2023-12-28T07:02:26.700Z,61630.53
2023-12-28T07:04:53.695Z,61630.53
2023-12-28T07:07:20.647Z,61630.53
2023-12-28T07:11:23.612Z,98536.03
2023-12-28T07:13:50.698Z,98543.56
2023-12-28T07:16:17.718Z,98546.28
2023-12-28T07:18:45.104Z,98552.84
2023-12-28T07:21:12.249Z,98552.03
2023-12-28T07:23:42.431Z,98553.66
2023-12-28T07:26:09.433Z,98553.38
2023-12-28T07:28:36.527Z,98560.50
2023-12-28T07:31:03.984Z,98571.94
2023-12-28T07:33:31.062Z,98579.06
2023-12-28T07:36:00.782Z,98591.28
2023-12-28T07:38:27.764Z,98600.63
2023-12-28T07:40:54.778Z,98591.53
2023-12-28T07:43:21.837Z,98590.53
2023-12-28T07:45:48.975Z,61630.53
2023-12-28T07:48:16.186Z,61630.53
2023-12-28T07:50:43.371Z,61630.53
2023-12-28T07:53:10.323Z,61630.53
2023-12-28T07:55:37.407Z,61630.53
2023-12-28T07:58:04.886Z,61630.53
2023-12-28T08:00:32.327Z,61630.53
2023-12-28T08:02:59.296Z,61630.53
2023-12-28T08:05:26.322Z,61630.53
2023-12-28T08:07:53.283Z,61630.53
2023-12-28T08:10:20.262Z,61630.53
2023-12-28T08:12:47.214Z,61630.53
2023-12-28T08:15:14.178Z,61630.53
2023-12-28T08:17:41.412Z,61630.53
2023-12-28T08:20:09.109Z,61630.53
2023-12-28T08:22:36.201Z,61630.53
2023-12-28T08:25:03.177Z,61630.53
2023-12-28T08:27:30.235Z,61630.53
2023-12-28T08:29:57.201Z,61630.53
2023-12-28T08:32:24.226Z,61630.53
2023-12-28T08:34:51.830Z,61630.53
2023-12-28T08:37:18.948Z,61630.53
2023-12-28T08:39:45.912Z,61630.53
2023-12-28T08:42:12.879Z,61630.53
2023-12-28T08:44:39.837Z,61630.53
2023-12-28T08:47:06.919Z,61630.53
2023-12-28T08:49:34.769Z,61630.53
2023-12-28T08:52:01.775Z,61630.53
2023-12-28T08:54:28.947Z,61630.53
2023-12-28T08:56:58.758Z,61630.53
2023-12-28T08:59:26.862Z,61630.53
2023-12-28T09:02:55.958Z,98594.78
2023-12-28T09:05:23.188Z,98582.97
2023-12-28T09:07:50.181Z,98604.66
2023-12-28T09:10:17.417Z,98596.50
2023-12-28T09:12:44.483Z,98598.56
2023-12-28T09:15:11.561Z,98595.13
2023-12-28T09:17:38.867Z,98604.25
2023-12-28T09:20:07.722Z,98594.00
2023-12-28T09:22:34.832Z,98603.16
2023-12-28T09:25:01.871Z,98598.41
2023-12-28T09:27:29.138Z,98600.28
2023-12-28T09:29:56.170Z,98598.13
2023-12-28T09:32:23.295Z,98588.88
2023-12-28T09:34:50.579Z,98589.25
2023-12-28T09:37:17.606Z,98588.84
2023-12-28T09:39:45.955Z,98585.25
2023-12-28T09:42:30.725Z,98592.94
2023-12-28T09:44:58.133Z,98597.22
2023-12-28T09:47:25.532Z,98604.78
2023-12-28T09:49:52.635Z,98604.53
2023-12-28T09:52:19.931Z,98606.59
2023-12-28T09:54:47.081Z,98612.94
2023-12-28T09:57:14.588Z,98622.91
2023-12-28T09:59:41.780Z,98613.72
2023-12-28T10:02:09.370Z,98629.56
2023-12-28T10:04:37.977Z,98625.16
2023-12-28T10:07:05.390Z,98612.53
2023-12-28T10:09:32.543Z,98620.84
2023-12-28T10:11:59.854Z,98625.25
2023-12-28T10:14:27.230Z,98619.66
2023-12-28T10:16:54.189Z,98626.31
2023-12-28T10:19:24.563Z,98635.06
2023-12-28T10:21:51.705Z,61630.53
2023-12-28T10:24:18.724Z,61630.53
2023-12-28T10:26:45.808Z,61630.53
2023-12-28T10:29:13.081Z,61630.53
2023-12-28T10:31:44.663Z,61630.53
2023-12-28T10:34:12.313Z,61630.53
2023-12-28T10:36:42.665Z,61630.53
2023-12-28T10:39:14.848Z,61630.53
2023-12-28T10:41:45.560Z,61630.53
2023-12-28T10:44:22.165Z,61630.53
2023-12-28T10:46:52.484Z,61630.53
2023-12-28T10:49:27.120Z,61630.53
2023-12-28T10:51:55.494Z,61630.53
2023-12-28T10:54:50.595Z,61630.53
2023-12-28T10:57:41.896Z,61630.53
2023-12-28T11:00:15.249Z,61630.53
2023-12-28T11:02:53.554Z,61630.53
2023-12-28T11:05:45.965Z,98590.31
2023-12-28T11:08:13.845Z,98587.25
2023-12-28T11:10:41.142Z,98584.28
2023-12-28T11:13:10.963Z,98575.16
2023-12-28T11:15:39.727Z,98568.63
2023-12-28T11:18:06.971Z,98577.16
2023-12-28T11:20:35.321Z,98578.50
2023-12-28T11:23:03.907Z,98576.56
2023-12-28T11:25:34.321Z,98576.63
2023-12-28T11:28:10.764Z,98578.22
2023-12-28T11:30:38.321Z,98569.97
2023-12-28T11:33:08.765Z,98569.88
2023-12-28T11:35:38.283Z,98570.84
2023-12-28T11:38:10.165Z,98567.59
2023-12-28T11:40:51.120Z,98568.50
2023-12-28T11:43:22.712Z,98562.66
2023-12-28T11:45:57.486Z,98558.69
2023-12-28T11:48:27.356Z,98565.53
2023-12-28T11:51:01.010Z,98561.94
2023-12-28T11:53:28.296Z,98560.66
2023-12-28T11:56:04.576Z,98564.53
2023-12-28T11:58:32.009Z,98558.00
2023-12-28T12:00:59.021Z,98557.44
2023-12-28T12:03:27.803Z,98557.09
2023-12-28T12:05:58.195Z,98547.06
2023-12-28T12:08:25.930Z,98535.19
2023-12-28T12:11:06.298Z,98542.56
2023-12-28T12:13:34.189Z,98545.75
2023-12-28T12:16:06.863Z,98546.97
2023-12-28T12:18:34.525Z,98547.72
2023-12-28T12:21:04.134Z,98548.59
2023-12-28T12:23:31.534Z,98536.88
2023-12-28T12:25:59.460Z,98548.50
2023-12-28T12:28:26.514Z,98543.09
2023-12-28T12:30:57.315Z,98538.81
2023-12-28T12:33:27.286Z,98542.06
2023-12-28T12:35:54.909Z,98533.09
2023-12-28T12:38:23.895Z,98526.84
2023-12-28T12:40:53.075Z,98522.88
2023-12-28T12:43:23.668Z,98516.41
2023-12-28T12:45:51.213Z,98521.94
2023-12-28T12:48:18.983Z,98516.16
2023-12-28T12:50:46.309Z,98519.66
2023-12-28T12:53:13.613Z,98512.00
2023-12-28T12:55:40.617Z,98513.28
2023-12-28T12:58:07.846Z,98511.31
2023-12-28T13:00:35.128Z,98506.25
2023-12-28T13:03:02.655Z,98514.09
2023-12-28T13:05:30.405Z,98512.19
2023-12-28T13:07:57.501Z,98512.75
2023-12-28T13:10:25.289Z,98520.84
2023-12-28T13:12:52.329Z,98512.28
2023-12-28T13:15:19.363Z,98517.78
2023-12-28T13:17:46.414Z,98509.75
2023-12-28T13:20:13.561Z,98515.34
2023-12-28T13:22:40.661Z,98514.53
2023-12-28T13:25:08.200Z,98512.19
2023-12-28T13:27:35.336Z,98517.56
2023-12-28T13:30:02.623Z,98518.84
2023-12-28T13:32:29.677Z,98526.94
2023-12-28T13:34:58.214Z,98521.75
2023-12-28T13:37:26.781Z,98515.41
2023-12-28T13:39:53.820Z,98513.16
2023-12-28T13:42:20.866Z,98523.00
2023-12-28T13:44:47.924Z,98523.81
2023-12-28T13:47:14.891Z,98518.84
2023-12-28T13:49:42.007Z,98535.38
2023-12-28T13:52:09.093Z,98529.34
2023-12-28T13:54:36.168Z,98525.41
2023-12-28T13:57:03.238Z,98524.69
2023-12-28T13:59:30.200Z,98527.75
2023-12-28T14:01:59.085Z,98519.09
2023-12-28T14:04:26.320Z,98528.38
2023-12-28T14:06:53.615Z,98528.72
2023-12-28T14:09:21.559Z,98526.84
2023-12-28T14:11:48.907Z,98519.00
2023-12-28T14:14:16.384Z,98522.28
2023-12-28T14:16:46.270Z,98517.53
2023-12-28T14:19:14.316Z,98516.53
2023-12-28T14:21:41.794Z,98518.13
2023-12-28T14:24:10.183Z,98525.25
2023-12-28T14:26:45.415Z,98518.72
2023-12-28T14:29:12.896Z,98525.19
2023-12-28T14:31:40.391Z,98514.91
2023-12-28T14:34:08.163Z,98519.63
2023-12-28T14:41:04.518Z,98521.75
2023-12-28T14:43:31.488Z,98520.69
2023-12-28T14:45:58.684Z,98519.78
2023-12-28T14:48:26.140Z,98516.38
2023-12-28T14:50:53.205Z,98511.88
2023-12-28T14:53:20.183Z,98501.81
2023-12-28T14:55:47.427Z,98504.31
2023-12-28T14:58:14.562Z,98494.03
2023-12-28T15:00:41.787Z,98496.28
2023-12-28T15:03:08.843Z,98499.25
2023-12-28T15:05:36.374Z,98489.88
2023-12-28T15:08:03.528Z,98497.09
2023-12-28T15:10:31.017Z,98489.88
2023-12-28T15:12:58.382Z,98496.28
2023-12-28T15:15:26.109Z,98486.66
2023-12-28T15:17:53.603Z,98490.03
2023-12-28T15:20:21.042Z,98482.97
2023-12-28T15:22:48.470Z,98486.50
2023-12-28T15:25:16.347Z,98487.59
2023-12-28T15:27:43.425Z,98489.09
2023-12-28T15:30:10.748Z,98487.31
2023-12-28T15:32:41.006Z,98479.19
2023-12-28T15:35:13.215Z,98482.66
2023-12-28T15:37:40.295Z,98486.25
2023-12-28T15:40:08.339Z,98481.03
2023-12-28T15:42:36.693Z,98486.69
2023-12-28T15:45:04.561Z,98479.13
2023-12-28T15:47:31.601Z,98479.69
2023-12-28T15:49:58.975Z,98481.09
2023-12-28T15:52:26.469Z,98489.72
2023-12-28T15:54:53.586Z,98491.63
2023-12-28T15:57:20.664Z,98485.88
2023-12-28T15:59:47.741Z,98479.19
2023-12-28T16:02:15.111Z,98479.19
2023-12-28T16:04:42.132Z,98476.16
2023-12-28T16:07:09.386Z,98474.97
2023-12-28T16:09:36.428Z,98476.72
2023-12-28T16:12:09.337Z,98480.22
2023-12-28T16:14:37.525Z,98474.59
2023-12-28T16:17:05.270Z,98474.59
2023-12-28T16:19:32.633Z,98475.88
2023-12-28T16:21:59.978Z,98476.47
2023-12-28T16:24:27.077Z,98464.56
2023-12-28T16:26:54.112Z,98474.19
2023-12-28T16:29:21.161Z,98472.00
2023-12-28T16:31:48.281Z,98471.63
2023-12-28T16:34:17.802Z,98478.34
2023-12-28T16:36:45.213Z,98481.81
2023-12-28T16:39:13.558Z,98471.13
2023-12-28T16:41:41.258Z,98475.53
2023-12-28T16:44:08.626Z,98474.34
2023-12-28T16:46:35.587Z,98469.63
2023-12-28T16:49:02.797Z,98473.66
2023-12-28T16:51:30.607Z,98472.56
2023-12-28T16:53:58.316Z,98481.25
2023-12-28T16:56:25.299Z,98476.22
2023-12-28T16:58:52.317Z,98474.22
2023-12-28T17:01:19.480Z,98461.91
2023-12-28T17:03:46.771Z,98473.63
2023-12-28T17:06:13.938Z,98459.00
2023-12-28T17:08:41.635Z,98466.34
2023-12-28T17:11:09.096Z,98465.53
2023-12-28T17:13:36.985Z,98464.09
2023-12-28T17:16:04.473Z,98474.34
2023-12-28T17:18:31.746Z,98470.75
2023-12-28T17:20:59.366Z,98459.03
2023-12-28T17:23:38.852Z,98452.47
2023-12-28T17:26:30.138Z,98454.06
2023-12-28T17:29:06.914Z,98450.81
2023-12-28T17:31:39.055Z,98449.84
2023-12-28T17:34:07.655Z,98439.25
2023-12-28T17:36:35.784Z,98450.81
2023-12-28T17:39:12.612Z,98451.59
2023-12-28T17:41:43.852Z,98450.00
2023-12-28T17:44:26.935Z,98461.66
2023-12-28T17:46:58.199Z,98458.66
2023-12-28T17:49:29.584Z,98460.53
2023-12-28T17:51:59.415Z,98449.94
2023-12-28T17:54:26.742Z,98452.22
2023-12-28T17:56:57.532Z,98456.06
2023-12-28T17:59:29.768Z,98455.59
2023-12-28T18:01:59.251Z,98458.84
2023-12-28T18:04:26.638Z,98452.94
2023-12-28T18:06:53.993Z,98449.47
2023-12-28T18:09:23.869Z,98459.59
2023-12-28T18:11:51.510Z,98464.13
2023-12-28T18:14:19.223Z,98454.94
2023-12-28T18:16:46.411Z,98458.41
2023-12-28T18:19:13.808Z,98457.41
2023-12-28T18:21:42.791Z,98455.75
2023-12-28T18:24:11.047Z,98459.91
2023-12-28T18:26:38.281Z,98456.88
2023-12-28T18:29:07.946Z,98460.06
2023-12-28T18:31:35.050Z,98468.97
2023-12-28T18:34:02.241Z,98473.34
2023-12-28T18:36:29.936Z,98469.91
2023-12-28T18:38:56.994Z,98473.38
2023-12-28T18:41:24.338Z,98480.59
2023-12-28T18:43:51.335Z,98489.03
2023-12-28T18:46:18.504Z,98484.94
2023-12-28T18:48:45.537Z,98485.69
2023-12-28T18:51:13.887Z,98489.03
2023-12-28T18:53:44.683Z,98495.38
2023-12-28T18:56:11.761Z,98497.25
2023-12-28T18:58:38.883Z,98488.66
2023-12-28T19:01:05.963Z,98492.03
2023-12-28T19:03:33.214Z,98477.63
2023-12-28T19:06:17.079Z,98482.56
2023-12-28T19:08:44.325Z,98491.78
2023-12-28T19:11:15.514Z,98492.84
2023-12-28T19:13:46.232Z,98490.63
2023-12-28T19:16:24.065Z,98496.28
2023-12-28T19:18:52.597Z,98496.28
2023-12-28T19:21:21.793Z,98498.56
2023-12-28T19:23:49.436Z,98492.59
2023-12-28T19:26:19.791Z,98496.56
2023-12-28T19:28:47.480Z,98501.00
2023-12-28T19:31:16.715Z,98503.84
2023-12-28T19:33:44.468Z,98508.97
2023-12-28T19:36:12.075Z,98505.22
2023-12-28T19:38:39.133Z,98508.78
2023-12-28T19:41:06.437Z,98506.91
2023-12-28T19:43:34.576Z,98505.28
2023-12-28T19:46:01.654Z,98504.63
2023-12-28T19:48:28.943Z,98508.09
2023-12-28T19:50:56.259Z,98506.84
2023-12-28T19:53:23.250Z,98508.47
2023-12-28T19:55:50.339Z,98509.59
2023-12-28T19:58:17.521Z,98510.50
2023-12-28T20:00:45.012Z,98504.72
2023-12-28T20:03:12.176Z,98510.34
2023-12-28T20:05:40.709Z,98498.81
2023-12-28T20:08:08.532Z,98495.75
2023-12-28T20:10:35.978Z,98504.25
2023-12-28T20:13:03.829Z,98500.31
2023-12-28T20:15:31.641Z,98494.59
2023-12-28T20:17:58.938Z,98495.03
2023-12-28T20:20:26.414Z,98500.00
2023-12-28T20:22:53.779Z,98499.19
2023-12-28T20:25:20.888Z,98501.06
2023-12-28T20:27:47.925Z,98504.88
2023-12-28T20:30:15.202Z,98499.94
2023-12-28T20:32:42.299Z,98488.94
2023-12-28T20:35:09.560Z,98498.00
2023-12-28T20:37:36.675Z,98487.91
2023-12-28T20:40:04.622Z,98488.31
2023-12-28T20:42:31.753Z,98481.97
2023-12-28T20:44:58.821Z,98477.09
2023-12-28T20:47:25.938Z,98479.97
2023-12-28T20:49:54.254Z,98481.00
2023-12-28T20:52:21.430Z,98472.81
2023-12-28T20:54:48.527Z,98474.72
2023-12-28T20:57:16.797Z,98482.78
2023-12-28T20:59:46.278Z,98476.59
2023-12-28T21:02:13.684Z,98474.94
2023-12-28T21:04:40.958Z,98474.13
2023-12-28T21:07:08.231Z,98473.78
2023-12-28T21:09:35.942Z,98466.88
2023-12-28T21:12:03.604Z,98468.16
2023-12-28T21:14:32.446Z,98459.03
2023-12-28T21:17:00.611Z,98463.91
2023-12-28T21:19:28.044Z,98456.38
2023-12-28T21:21:55.236Z,98465.41
2023-12-28T21:24:22.896Z,98469.00
2023-12-28T21:26:50.884Z,98455.06
2023-12-28T21:29:18.329Z,98460.78
2023-12-28T21:31:45.972Z,98449.09
2023-12-28T21:34:13.354Z,98440.00
2023-12-28T21:36:44.261Z,98443.34
2023-12-28T21:39:13.646Z,98450.22
2023-12-28T21:41:40.697Z,98448.34
2023-12-28T21:44:08.020Z,98445.00
2023-12-28T21:46:36.189Z,98444.41
2023-12-28T21:49:05.056Z,98445.63
2023-12-28T21:53:59.144Z,98441.06
2023-12-28T21:56:26.220Z,98440.63
2023-12-28T21:58:53.228Z,98436.91
2023-12-28T22:01:20.531Z,98454.25
2023-12-28T22:03:47.707Z,98449.97
2023-12-28T22:06:14.890Z,98449.41
2023-12-28T22:08:43.638Z,98439.56
2023-12-28T22:11:11.115Z,98444.28
2023-12-28T22:13:38.466Z,98441.44
2023-12-28T22:16:06.190Z,98443.88
2023-12-28T22:18:33.376Z,98455.56
2023-12-28T22:21:00.556Z,98449.72
2023-12-28T22:23:27.666Z,98461.53
2023-12-28T22:25:54.660Z,98453.56
2023-12-28T22:28:21.789Z,98446.75
2023-12-28T22:30:48.916Z,98438.91
2023-12-28T22:33:16.048Z,98440.06
2023-12-28T22:35:46.603Z,98447.84
2023-12-28T22:38:13.587Z,98445.22
2023-12-28T22:40:40.680Z,98439.38
2023-12-28T22:43:08.249Z,98445.88
2023-12-28T22:45:35.679Z,98451.72
2023-12-28T22:48:03.165Z,98444.63
2023-12-28T22:50:31.561Z,98435.09
2023-12-28T22:52:58.809Z,98435.72
2023-12-28T22:55:25.951Z,98435.09
2023-12-28T22:57:59.269Z,98434.25
2023-12-28T23:00:35.390Z,98425.81
2023-12-28T23:03:04.187Z,98420.97
2023-12-28T23:05:31.459Z,98425.84
2023-12-28T23:07:59.518Z,98416.22
2023-12-28T23:10:27.994Z,98409.78
2023-12-28T23:12:55.756Z,98410.81
2023-12-28T23:15:22.905Z,98425.34
2023-12-28T23:17:54.198Z,98411.63
2023-12-28T23:20:21.942Z,98412.88
2023-12-28T23:22:48.986Z,98408.56
2023-12-28T23:25:18.291Z,98403.53
2023-12-28T23:27:46.608Z,98398.59
2023-12-28T23:30:16.285Z,98400.50
2023-12-28T23:32:44.768Z,98408.97
2023-12-28T23:35:12.052Z,98408.88
2023-12-28T23:37:39.393Z,98408.94
2023-12-28T23:40:07.353Z,98405.44
2023-12-28T23:42:36.581Z,98409.31
2023-12-28T23:45:05.681Z,98405.56
2023-12-28T23:47:32.860Z,98403.22
2023-12-28T23:49:59.999Z,98413.59
2023-12-28T23:52:27.988Z,98397.31
2023-12-28T23:54:55.068Z,98397.66
2023-12-28T23:57:22.605Z,98401.94
2023-12-28T23:59:49.831Z,98395.03
